Time;durP1;ratioP1;P1;durP2;ratioP2;P2;SDS_P1;SDS_P2;PMS_P1;PMS_P2;Temp;Humidity;BMP_temperature;BMP_pressure;BME280_temperature;BME280_humidity;BME280_pressure;Samples;Min_cycle;Max_cycle;Signal;HPM_P1;HPM_P2
2022/12/26 00:00:37;;;;;;;3.72;1.20;;;18.10;90.80;;;;;;5026384;28;20068;-74
2022/12/26 00:03:03;;;;;;;4.85;1.00;;;18.00;91.00;;;;;;5027435;28;20048;-74
2022/12/26 00:05:33;;;;;;;4.30;1.13;;;18.00;90.70;;;;;;5043056;28;20045;-74
2022/12/26 00:07:59;;;;;;;3.13;0.88;;;17.90;90.80;;;;;;5025407;28;20056;-74
2022/12/26 00:10:25;;;;;;;4.15;1.00;;;17.90;90.80;;;;;;5025549;28;20397;-72
2022/12/26 00:12:53;;;;;;;4.85;1.10;;;17.90;90.80;;;;;;5038112;28;20495;-75
2022/12/26 00:15:19;;;;;;;2.47;0.98;;;18.00;90.50;;;;;;5036704;28;20037;-73
2022/12/26 00:17:45;;;;;;;2.63;1.00;;;17.90;90.40;;;;;;5057058;28;20025;-73
2022/12/26 00:20:11;;;;;;;3.22;0.82;;;17.90;90.50;;;;;;5044931;28;20166;-74
2022/12/26 00:22:36;;;;;;;5.55;1.40;;;17.80;90.70;;;;;;5053221;28;20448;-74
2022/12/26 00:25:04;;;;;;;2.85;1.10;;;17.80;90.70;;;;;;5041176;28;20115;-73
2022/12/26 00:27:31;;;;;;;6.47;1.33;;;17.80;90.60;;;;;;5041097;28;20025;-73
2022/12/26 00:29:58;;;;;;;;;;;17.70;90.40;;;;;;5045360;28;20037;-73
2022/12/26 00:32:24;;;;;;;2.75;0.88;;;17.70;90.40;;;;;;5036256;28;19979;-73
2022/12/26 00:34:50;;;;;;;4.97;1.02;;;17.70;90.40;;;;;;5044258;28;20040;-74
2022/12/26 00:37:15;;;;;;;2.92;0.90;;;17.80;90.20;;;;;;5038555;28;20410;-74
2022/12/26 00:39:41;;;;;;;3.67;1.00;;;17.80;90.40;;;;;;5038174;28;20065;-73
2022/12/26 00:42:07;;;;;;;5.43;1.10;;;17.70;90.20;;;;;;5037207;28;20041;-73
2022/12/26 00:44:34;;;;;;;2.78;1.05;;;17.80;90.60;;;;;;5041105;28;20036;-73
2022/12/26 00:47:00;;;;;;;;;;;17.90;90.40;;;;;;5039316;28;20071;-73
2022/12/26 00:49:27;;;;;;;5.65;1.40;;;17.90;90.40;;;;;;5023648;28;19948;-73
2022/12/26 00:51:52;;;;;;;2.72;1.00;;;17.80;90.50;;;;;;5042699;28;20036;-74
2022/12/26 00:54:18;;;;;;;2.83;0.93;;;17.80;90.40;;;;;;5043789;28;20037;-73
2022/12/26 00:56:44;;;;;;;3.85;0.82;;;17.80;90.40;;;;;;5036459;28;20655;-73
2022/12/26 00:59:10;;;;;;;3.10;0.90;;;18.00;90.10;;;;;;5038234;28;20420;-74
2022/12/26 01:01:37;;;;;;;3.58;1.23;;;18.00;90.00;;;;;;5037107;28;20036;-73
2022/12/26 01:04:03;;;;;;;4.38;1.13;;;18.10;89.80;;;;;;5033634;28;20049;-74
2022/12/26 01:06:29;;;;;;;3.70;0.88;;;18.10;89.60;;;;;;5053397;28;20048;-74
2022/12/26 01:08:55;;;;;;;3.38;0.88;;;18.10;89.80;;;;;;5041378;28;20037;-74
2022/12/26 01:11:39;;;;;;;4.00;1.05;;;18.10;89.10;;;;;;5040453;28;20389;-73
2022/12/26 01:14:16;;;;;;;2.88;0.90;;;18.10;89.40;;;;;;5048108;28;20041;-73
2022/12/26 01:16:43;;;;;;;4.80;1.00;;;18.10;89.20;;;;;;5015774;28;20077;-73
2022/12/26 01:19:11;;;;;;;2.78;0.93;;;18.00;89.70;;;;;;5041244;28;20041;-74
2022/12/26 01:21:37;;;;;;;3.15;0.82;;;17.90;90.00;;;;;;5035128;28;20471;-73
2022/12/26 01:24:04;;;;;;;4.85;1.10;;;17.80;89.90;;;;;;5051879;28;20037;-74
2022/12/26 01:26:30;;;;;;;;;;;17.80;90.00;;;;;;5041369;28;20441;-73
2022/12/26 01:28:55;;;;;;;4.07;1.00;;;17.80;90.00;;;;;;5036210;28;19999;-74
2022/12/26 01:31:22;;;;;;;2.83;0.90;;;17.80;90.10;;;;;;5042643;28;20041;-74
2022/12/26 01:33:49;;;;;;;2.90;1.00;;;17.80;90.10;;;;;;5050987;28;20049;-74
2022/12/26 01:36:17;;;;;;;3.50;1.00;;;17.80;90.30;;;;;;5040935;28;20091;-74
2022/12/26 01:38:43;;;;;;;4.03;1.10;;;18.00;90.10;;;;;;5034057;28;20025;-73
2022/12/26 01:41:16;;;;;;;4.70;1.05;;;18.00;90.30;;;;;;5034153;28;20076;-74
2022/12/26 01:44:06;;;;;;;4.18;1.20;;;17.80;90.50;;;;;;5034817;28;20503;-74
2022/12/26 01:46:44;;;;;;;3.13;1.05;;;17.80;90.60;;;;;;5037962;28;20414;-74
2022/12/26 01:49:25;;;;;;;3.45;0.88;;;17.70;90.80;;;;;;5053466;28;20048;-73
2022/12/26 01:51:56;;;;;;;5.45;0.93;;;17.70;90.90;;;;;;5047101;28;20044;-72
2022/12/26 01:54:25;;;;;;;3.38;1.05;;;17.70;91.00;;;;;;5041852;28;20047;-73
2022/12/26 01:56:51;;;;;;;5.28;0.98;;;17.60;91.00;;;;;;5037120;28;20041;-73
2022/12/26 01:59:24;;;;;;;4.30;1.10;;;17.50;91.10;;;;;;5040661;28;20152;-74
2022/12/26 02:01:51;;;;;;;;;;;17.60;90.90;;;;;;5058030;28;20412;-74
2022/12/26 02:07:07;;;;;;;2.72;1.00;;;17.70;90.70;;;;;;5039783;28;20116;-73
2022/12/26 02:09:33;;;;;;;4.30;0.93;;;17.80;90.50;;;;;;5041145;28;20057;-74
2022/12/26 02:12:22;;;;;;;4.03;0.88;;;17.90;90.30;;;;;;5056595;28;20085;-74
2022/12/26 02:14:49;;;;;;;4.13;1.08;;;17.80;90.50;;;;;;5038074;28;20045;-74
2022/12/26 02:17:15;;;;;;;4.85;1.08;;;17.70;90.60;;;;;;5046171;28;20045;-74
2022/12/26 02:20:04;;;;;;;3.50;1.00;;;17.60;90.70;;;;;;5047278;28;20029;-73
2022/12/26 02:22:33;;;;;;;3.67;1.10;;;17.60;90.70;;;;;;5032983;28;20120;-73
2022/12/26 02:25:34;;;;;;;4.65;0.98;;;17.60;90.60;;;;;;5053603;28;20048;-73
2022/12/26 02:28:23;;;;;;;3.75;0.90;;;17.70;90.50;;;;;;5041554;28;20041;-75
2022/12/26 02:31:00;;;;;;;3.50;0.98;;;17.70;90.60;;;;;;5037961;28;20075;-74
2022/12/26 02:33:42;;;;;;;4.18;1.27;;;17.60;90.50;;;;;;5054482;28;20112;-74
2022/12/26 02:36:26;;;;;;;3.67;0.90;;;17.70;90.50;;;;;;5041727;28;20445;-74
2022/12/26 02:39:08;;;;;;;2.95;0.80;;;17.70;90.50;;;;;;5058409;28;20117;-73
2022/12/26 02:41:55;;;;;;;3.10;1.00;;;17.70;90.80;;;;;;5030619;28;20033;-73
2022/12/26 02:47:48;;;;;;;;;;;17.30;91.70;;;;;;5045944;28;20055;-74
2022/12/26 03:14:51;;;;;;;6.57;2.80;;;14.80;97.20;;;;;;5038099;28;20083;-73
2022/12/26 03:17:36;;;;;;;8.32;2.83;;;14.70;97.20;;;;;;5051851;28;20087;-73
2022/12/26 03:20:08;;;;;;;5.00;2.42;;;14.60;97.00;;;;;;5054125;28;20113;-73
2022/12/26 03:22:45;;;;;;;7.50;2.70;;;14.70;97.10;;;;;;5044080;28;20040;-73
2022/12/26 03:28:03;;;;;;;7.95;2.60;;;14.60;97.40;;;;;;5039528;28;20056;-73
2022/12/26 03:30:48;;;;;;;6.25;2.50;;;14.50;97.40;;;;;;5038423;28;20041;-74
2022/12/26 03:36:49;;;;;;;9.02;3.03;;;14.40;97.70;;;;;;5036446;28;20037;-73
2022/12/26 04:44:27;;;;;;;3.83;1.10;;;16.40;92.80;;;;;;5033814;28;20040;-73
2022/12/26 04:46:55;;;;;;;4.70;1.17;;;16.90;92.00;;;;;;5046644;28;20041;-73
2022/12/26 04:52:11;;;;;;;7.30;1.13;;;17.20;91.70;;;;;;5039599;28;20052;-73
2022/12/26 04:54:37;;;;;;;5.53;0.93;;;17.20;91.60;;;;;;5033942;28;20045;-73
2022/12/26 04:57:04;;;;;;;2.15;0.70;;;17.40;91.30;;;;;;5037430;28;20037;-73
2022/12/26 04:59:30;;;;;;;;;;;17.60;90.70;;;;;;5039675;28;20041;-73
2022/12/26 05:10:21;;;;;;;4.13;0.80;;;18.20;89.40;;;;;;5039353;28;20049;-73
2022/12/26 05:12:47;;;;;;;6.38;0.98;;;18.30;88.90;;;;;;5040445;28;20034;-72
2022/12/26 05:15:14;;;;;;;3.85;0.77;;;18.10;89.40;;;;;;5039297;28;20068;-75
2022/12/26 05:29:02;;;;;;;4.15;0.93;;;17.80;90.00;;;;;;5011262;28;20083;-73
2022/12/26 05:31:29;;;;;;;3.03;0.82;;;17.90;89.90;;;;;;5036075;28;20472;-73
2022/12/26 05:34:09;;;;;;;3.10;0.77;;;17.80;90.10;;;;;;5039449;28;20078;-73
2022/12/26 05:36:57;;;;;;;4.90;1.02;;;17.70;90.20;;;;;;5041642;28;20540;-73
2022/12/26 05:39:23;;;;;;;3.50;1.02;;;17.70;90.20;;;;;;5037244;28;20041;-74
2022/12/26 05:41:49;;;;;;;4.18;0.90;;;17.80;90.20;;;;;;5041175;28;20044;-74
2022/12/26 05:44:15;;;;;;;3.67;1.08;;;17.80;90.10;;;;;;5045874;28;20041;-73
2022/12/26 05:46:45;;;;;;;2.10;0.65;;;18.00;89.80;;;;;;5019997;28;20037;-73
2022/12/26 05:49:12;;;;;;;3.67;0.90;;;18.10;89.60;;;;;;5038529;28;20374;-73
2022/12/26 05:51:39;;;;;;;3.92;0.98;;;18.10;89.50;;;;;;5020667;28;20045;-74
2022/12/26 05:54:05;;;;;;;;;;;18.20;89.30;;;;;;5037825;28;20041;-73
2022/12/26 05:56:30;;;;;;;3.67;0.82;;;18.20;89.20;;;;;;5051011;28;19963;-73
2022/12/26 05:58:58;;;;;;;3.13;0.90;;;18.20;88.90;;;;;;5040877;28;20056;-73
2022/12/26 06:01:25;;;;;;;6.03;1.58;;;18.30;88.90;;;;;;5036615;28;20041;-73
2022/12/26 06:03:53;;;;;;;3.60;0.85;;;18.20;89.10;;;;;;5052443;28;20029;-73
2022/12/26 06:06:21;;;;;;;1.80;0.60;;;18.20;88.90;;;;;;5036398;28;20049;-73
2022/12/26 06:08:48;;;;;;;3.42;0.82;;;18.20;89.10;;;;;;5040096;28;20128;-74
2022/12/26 06:11:16;;;;;;;4.85;1.15;;;18.20;89.20;;;;;;5034674;28;20706;-73
2022/12/26 06:13:43;;;;;;;3.90;1.02;;;18.30;89.10;;;;;;5045631;28;20029;-74
2022/12/26 06:16:12;;;;;;;3.78;1.20;;;18.30;89.20;;;;;;5049891;28;20120;-74
2022/12/26 06:18:39;;;;;;;4.53;0.98;;;18.20;89.00;;;;;;5022431;28;20104;-73
2022/12/26 06:21:17;;;;;;;3.05;0.80;;;18.30;88.80;;;;;;5043940;28;20051;-72
2022/12/26 06:23:43;;;;;;;2.08;0.70;;;18.30;89.00;;;;;;5050361;28;20083;-73
2022/12/26 06:26:11;;;;;;;4.25;0.82;;;18.30;88.80;;;;;;5035956;28;20038;-73
2022/12/26 06:28:39;;;;;;;4.35;0.95;;;18.20;89.10;;;;;;5038048;28;20037;-74
2022/12/26 06:31:13;;;;;;;4.40;1.08;;;18.10;89.20;;;;;;5033826;28;20041;-73
2022/12/26 06:33:40;;;;;;;2.17;0.73;;;18.20;89.30;;;;;;5037286;28;20030;-74
2022/12/26 06:36:12;;;;;;;3.97;0.85;;;18.20;89.30;;;;;;5027970;28;20029;-73
2022/12/26 06:38:38;;;;;;;5.10;0.80;;;18.10;89.50;;;;;;5039413;28;20034;-74
2022/12/26 06:41:09;;;;;;;3.50;0.90;;;18.30;89.30;;;;;;5039773;28;20034;-74
2022/12/26 06:43:36;;;;;;;3.10;0.98;;;18.30;89.10;;;;;;5042541;28;20116;-74
2022/12/26 06:46:04;;;;;;;4.53;1.05;;;18.10;89.20;;;;;;5041962;28;20065;-73
2022/12/26 06:48:30;;;;;;;4.45;1.13;;;18.20;89.00;;;;;;5037032;28;20049;-73
2022/12/26 06:50:56;;;;;;;3.67;0.70;;;18.00;89.40;;;;;;5041305;28;20070;-73
2022/12/26 06:53:23;;;;;;;3.60;1.02;;;18.10;89.10;;;;;;5049524;28;20038;-73
2022/12/26 06:55:49;;;;;;;2.05;0.90;;;18.20;89.00;;;;;;5030386;28;20134;-73
2022/12/26 06:58:16;;;;;;;2.45;0.75;;;18.20;89.10;;;;;;5035400;28;20037;-74
2022/12/26 07:00:42;;;;;;;2.83;0.90;;;18.10;89.20;;;;;;5038022;28;20029;-73
2022/12/26 07:03:07;;;;;;;4.30;0.77;;;18.10;89.10;;;;;;5041541;28;20044;-73
2022/12/26 07:05:37;;;;;;;2.95;0.70;;;18.10;89.10;;;;;;5037981;28;20037;-73
2022/12/26 07:08:03;;;;;;;2.33;1.00;;;18.20;88.80;;;;;;5048274;28;20989;-74
2022/12/26 07:10:34;;;;;;;3.58;0.70;;;18.30;88.60;;;;;;5039773;28;20029;-74
2022/12/26 07:13:00;;;;;;;2.83;0.73;;;18.30;88.50;;;;;;5041663;28;20100;-73
2022/12/26 07:15:26;;;;;;;3.00;1.00;;;18.30;88.40;;;;;;5042056;28;20029;-73
2022/12/26 07:17:52;;;;;;;4.30;1.23;;;18.40;88.00;;;;;;5054308;28;20040;-73
2022/12/26 07:20:17;;;;;;;3.25;0.63;;;18.40;87.90;;;;;;5051515;28;20034;-74
2022/12/26 07:22:43;;;;;;;2.67;0.82;;;18.40;88.00;;;;;;5056317;28;20091;-74
2022/12/26 07:25:09;;;;;;;3.63;0.88;;;18.40;88.00;;;;;;5053658;28;20041;-73
2022/12/26 07:27:35;;;;;;;5.30;0.80;;;18.50;87.80;;;;;;5042918;28;20030;-74
2022/12/26 07:30:01;;;;;;;4.95;1.20;;;18.50;87.90;;;;;;5041794;28;20145;-73
2022/12/26 07:32:27;;;;;;;2.92;0.82;;;18.50;87.90;;;;;;5036481;28;20045;-73
2022/12/26 07:34:53;;;;;;;3.75;0.70;;;18.50;87.90;;;;;;5056275;28;20030;-74
2022/12/26 07:37:19;;;;;;;2.38;0.73;;;18.40;88.10;;;;;;5043558;28;20033;-74
2022/12/26 07:39:45;;;;;;;4.35;0.75;;;18.50;87.90;;;;;;5053300;28;20030;-73
2022/12/26 07:42:11;;;;;;;5.07;1.52;;;18.50;87.90;;;;;;5041488;28;20797;-74
2022/12/26 07:44:38;;;;;;;3.50;0.80;;;18.60;87.90;;;;;;5044842;28;20037;-73
2022/12/26 07:47:04;;;;;;;3.75;1.13;;;18.60;88.00;;;;;;5041564;28;20033;-73
2022/12/26 07:49:30;;;;;;;6.10;0.82;;;18.50;87.90;;;;;;5036967;28;20056;-74
2022/12/26 07:51:56;;;;;;;3.00;1.23;;;18.50;88.10;;;;;;5037526;28;20068;-73
2022/12/26 07:54:22;;;;;;;3.53;0.95;;;18.60;87.80;;;;;;5041941;28;20140;-73
2022/12/26 07:56:48;;;;;;;3.28;1.02;;;18.50;88.20;;;;;;5057094;28;20028;-74
2022/12/26 07:59:15;;;;;;;4.90;1.10;;;18.50;88.20;;;;;;5040336;28;20213;-73
2022/12/26 08:01:42;;;;;;;3.60;1.33;;;18.50;88.40;;;;;;5044611;28;20041;-74
2022/12/26 08:04:09;;;;;;;3.28;0.70;;;18.50;88.40;;;;;;5042793;28;20032;-73
2022/12/26 08:06:35;;;;;;;3.47;0.73;;;18.60;88.50;;;;;;5055548;28;20049;-74
2022/12/26 08:09:01;;;;;;;5.45;0.98;;;18.50;88.80;;;;;;5044816;28;20362;-74
2022/12/26 08:11:29;;;;;;;5.22;1.02;;;18.50;89.00;;;;;;5046825;28;20038;-74
2022/12/26 08:13:56;;;;;;;4.22;1.17;;;18.50;89.50;;;;;;5046935;28;20675;-74
2022/12/26 08:16:23;;;;;;;4.72;2.33;;;18.60;89.60;;;;;;5038405;28;20045;-74
2022/12/26 08:18:49;;;;;;;5.03;1.75;;;19.80;88.80;;;;;;5041889;28;20044;-74
2022/12/26 08:21:15;;;;;;;4.47;1.63;;;20.70;87.50;;;;;;5043183;28;20037;-74
2022/12/26 08:23:41;;;;;;;4.55;2.10;;;21.00;86.90;;;;;;5040127;28;20120;-74
2022/12/26 08:26:09;;;;;;;6.10;1.75;;;21.60;86.10;;;;;;5038564;28;20029;-74
2022/12/26 08:28:35;;;;;;;6.97;1.92;;;21.90;86.10;;;;;;5041951;28;20064;-73
2022/12/26 08:31:06;;;;;;;5.13;1.55;;;21.90;85.70;;;;;;5046450;28;20048;-73
2022/12/26 08:33:32;;;;;;;3.42;1.45;;;22.00;84.90;;;;;;5042524;28;20030;-74
2022/12/26 08:36:02;;;;;;;4.50;1.73;;;22.30;84.90;;;;;;5043506;28;20559;-75
2022/12/26 08:38:28;;;;;;;3.05;1.27;;;22.30;84.50;;;;;;5039852;28;20033;-74
2022/12/26 08:40:57;;;;;;;4.60;2.42;;;22.40;84.50;;;;;;5045608;28;20035;-74
2022/12/26 08:43:24;;;;;;;4.95;1.40;;;22.60;84.30;;;;;;5042261;28;20033;-73
2022/12/26 08:46:04;;;;;;;7.68;1.85;;;22.70;84.40;;;;;;5037560;28;20135;-73
2022/12/26 08:48:32;;;;;;;4.47;1.35;;;22.70;84.30;;;;;;5036082;28;20052;-74
2022/12/26 08:51:04;;;;;;;4.03;1.02;;;21.90;84.00;;;;;;5047152;28;20048;-74
2022/12/26 08:53:32;;;;;;;3.38;1.15;;;21.40;84.70;;;;;;5035576;28;20040;-74
2022/12/26 08:55:58;;;;;;;5.78;1.25;;;21.00;85.50;;;;;;5022653;28;20041;-74
2022/12/26 08:58:24;;;;;;;3.47;1.02;;;20.80;85.70;;;;;;5035463;28;20034;-75
2022/12/26 09:00:51;;;;;;;4.38;1.30;;;20.60;85.80;;;;;;5038738;28;20388;-74
2022/12/26 09:03:17;;;;;;;5.13;1.40;;;20.60;86.10;;;;;;5026597;28;20029;-74
2022/12/26 09:05:43;;;;;;;5.22;1.17;;;20.40;86.00;;;;;;5031177;28;20063;-74
2022/12/26 09:08:09;;;;;;;3.50;1.05;;;20.50;86.50;;;;;;5031439;28;20776;-74
2022/12/26 09:10:35;;;;;;;;;;;20.50;85.90;;;;;;5046147;28;20036;-77
2022/12/26 09:13:01;;;;;;;3.47;1.38;;;20.50;86.00;;;;;;5037252;28;19916;-74
2022/12/26 09:15:27;;;;;;;3.60;1.00;;;20.60;86.10;;;;;;5036572;28;20047;-74
2022/12/26 09:17:53;;;;;;;6.15;1.23;;;20.50;86.40;;;;;;5037465;28;20068;-75
2022/12/26 09:20:19;;;;;;;5.00;1.15;;;20.50;86.50;;;;;;5025599;28;20126;-74
2022/12/26 09:22:50;;;;;;;3.15;0.90;;;20.60;86.20;;;;;;5027212;28;20492;-74
2022/12/26 09:25:18;;;;;;;6.07;1.45;;;20.40;85.90;;;;;;5037384;28;20053;-74
2022/12/26 09:27:46;;;;;;;5.50;1.27;;;20.40;86.20;;;;;;5023655;28;20037;-74
2022/12/26 09:30:12;;;;;;;4.35;1.20;;;20.20;86.30;;;;;;5029952;28;20043;-73
2022/12/26 09:32:39;;;;;;;4.93;1.08;;;20.30;86.40;;;;;;5026954;28;20046;-73
2022/12/26 09:35:05;;;;;;;5.55;1.08;;;20.40;86.60;;;;;;5027346;28;20764;-74
2022/12/26 09:37:31;;;;;;;4.55;1.08;;;20.60;86.00;;;;;;5025815;28;20044;-73
2022/12/26 09:39:57;;;;;;;4.13;1.00;;;20.60;86.00;;;;;;5046462;28;20117;-74
2022/12/26 09:42:32;;;;;;;6.57;1.40;;;20.60;85.80;;;;;;5031931;28;20116;-74
2022/12/26 09:45:03;;;;;;;3.03;1.13;;;20.70;85.80;;;;;;5050507;28;20128;-74
2022/12/26 09:47:29;;;;;;;4.68;1.45;;;20.70;85.70;;;;;;5023170;28;20030;-74
2022/12/26 09:50:13;;;;;;;5.22;1.30;;;20.60;86.10;;;;;;5034437;28;20033;-76
2022/12/26 09:52:41;;;;;;;3.55;1.50;;;20.20;86.60;;;;;;5036469;28;20095;-74
2022/12/26 09:55:39;;;;;;;5.97;1.95;;;20.30;86.90;;;;;;5031188;28;20041;-75
2022/12/26 09:58:19;;;;;;;3.53;0.90;;;20.30;87.00;;;;;;5036400;28;20148;-74
2022/12/26 10:00:57;;;;;;;5.22;1.30;;;20.70;86.90;;;;;;5052611;28;20035;-75
2022/12/26 10:03:24;;;;;;;4.55;1.30;;;20.90;86.40;;;;;;5032059;28;20033;-75
2022/12/26 10:06:07;;;;;;;4.00;1.20;;;20.90;86.70;;;;;;5034657;28;20115;-74
2022/12/26 10:09:02;;;;;;;4.35;1.10;;;21.00;86.10;;;;;;5023776;28;20048;-74
2022/12/26 10:11:56;;;;;;;5.32;1.58;;;21.30;86.20;;;;;;5033707;28;20030;-73
2022/12/26 10:14:37;;;;;;;5.15;1.30;;;21.40;86.00;;;;;;5036346;28;21079;-74
2022/12/26 10:17:13;;;;;;;5.03;1.30;;;21.50;85.80;;;;;;5058885;28;20132;-74
2022/12/26 10:20:01;;;;;;;4.50;1.90;;;21.60;86.10;;;;;;5044350;28;20549;-74
2022/12/26 10:22:57;;;;;;;4.80;1.33;;;21.50;86.80;;;;;;5040736;28;20041;-74
2022/12/26 10:25:32;;;;;;;5.28;2.13;;;21.60;86.10;;;;;;5039690;28;22400;-73
2022/12/26 10:27:59;;;;;;;2.92;1.20;;;21.70;85.90;;;;;;5063500;28;20033;-74
2022/12/26 10:30:34;;;;;;;4.13;1.58;;;21.60;85.20;;;;;;5053241;28;20049;-73
2022/12/26 10:33:08;;;;;;;5.63;1.48;;;21.90;85.40;;;;;;5052918;28;20056;-76
2022/12/26 10:35:42;;;;;;;4.97;1.45;;;21.90;85.40;;;;;;5039994;28;20030;-74
2022/12/26 10:38:19;;;;;;;6.25;1.50;;;21.70;85.20;;;;;;5034913;28;20037;-75
2022/12/26 10:40:49;;;;;;;3.97;1.55;;;21.90;85.10;;;;;;5039009;28;20534;-74
2022/12/26 10:43:27;;;;;;;5.15;1.92;;;21.70;85.50;;;;;;5046291;28;20037;-75
2022/12/26 10:46:12;;;;;;;3.63;1.00;;;21.40;86.00;;;;;;5038687;28;20040;-74
2022/12/26 10:48:38;;;;;;;4.93;2.30;;;21.50;86.30;;;;;;5040560;28;20025;-74
2022/12/26 10:51:04;;;;;;;3.53;2.05;;;21.60;86.40;;;;;;5038031;28;20030;-74
2022/12/26 10:53:40;;;;;;;3.33;1.30;;;21.40;86.50;;;;;;5041382;28;20474;-75
2022/12/26 10:56:06;;;;;;;6.13;1.15;;;21.40;86.50;;;;;;5034781;28;20033;-73
2022/12/26 10:58:33;;;;;;;;;;;21.70;86.50;;;;;;5040093;28;20060;-74
2022/12/26 11:01:31;;;;;;;5.45;1.60;;;22.20;86.00;;;;;;5035823;28;20520;-73
2022/12/26 11:04:00;;;;;;;5.47;1.40;;;22.40;85.20;;;;;;5041673;28;20059;-74
2022/12/26 11:06:38;;;;;;;4.50;1.40;;;22.40;85.50;;;;;;5041315;28;20376;-75
2022/12/26 11:09:06;;;;;;;5.60;1.92;;;22.80;85.50;;;;;;5038689;28;20400;-73
2022/12/26 11:11:46;;;;;;;5.22;1.70;;;22.70;85.10;;;;;;5038107;28;20033;-74
2022/12/26 11:14:35;;;;;;;5.13;1.73;;;22.80;85.10;;;;;;5038570;28;20400;-74
2022/12/26 11:17:08;;;;;;;6.25;1.23;;;22.60;85.40;;;;;;5038013;28;20439;-74
2022/12/26 11:19:38;;;;;;;5.00;1.30;;;22.40;85.70;;;;;;5036773;28;20030;-75
2022/12/26 11:22:24;;;;;;;12.30;6.30;;;22.20;85.70;;;;;;5036556;28;20120;-74
2022/12/26 11:25:16;;;;;;;6.63;1.58;;;23.00;85.30;;;;;;5036147;28;20041;-75
2022/12/26 11:27:45;;;;;;;4.95;0.95;;;23.30;84.30;;;;;;5037355;28;20041;-74
2022/12/26 11:30:19;;;;;;;6.57;1.70;;;23.40;84.30;;;;;;5043646;28;20044;-74
2022/12/26 11:32:49;;;;;;;5.03;1.98;;;23.70;84.00;;;;;;5042669;28;20071;-74
2022/12/26 11:35:21;;;;;;;4.43;2.03;;;24.30;83.50;;;;;;5037543;28;20041;-73
2022/12/26 11:37:54;;;;;;;3.97;1.23;;;23.40;82.90;;;;;;5041756;28;20028;-74
2022/12/26 11:40:28;;;;;;;6.45;2.70;;;24.30;83.40;;;;;;5046529;28;20544;-74
2022/12/26 11:42:57;;;;;;;5.03;1.50;;;25.00;82.60;;;;;;5057033;28;20039;-75
2022/12/26 11:45:26;;;;;;;4.25;1.75;;;24.90;82.10;;;;;;5052555;28;21026;-74
2022/12/26 11:47:55;;;;;;;2.85;1.20;;;25.10;82.20;;;;;;5040342;28;20032;-75
2022/12/26 11:50:26;;;;;;;4.60;1.85;;;24.30;82.30;;;;;;5041945;28;20043;-73
2022/12/26 11:52:57;;;;;;;5.60;2.22;;;24.30;82.70;;;;;;5040101;28;20042;-74
2022/12/26 11:55:32;;;;;;;4.75;2.13;;;24.70;82.20;;;;;;5047771;28;20045;-74
2022/12/26 11:58:21;;;;;;;5.75;2.17;;;24.80;82.20;;;;;;5043763;28;20029;-74
2022/12/26 12:00:50;;;;;;;5.15;2.50;;;24.60;82.50;;;;;;5040565;28;20037;-73
2022/12/26 12:04:00;;;;;;;4.43;2.20;;;24.70;82.00;;;;;;5043025;28;20123;-73
2022/12/26 12:07:03;;;;;;;4.30;2.33;;;24.40;82.50;;;;;;5004920;28;20829;-74
2022/12/26 12:10:16;;;;;;;5.03;2.42;;;24.30;82.90;;;;;;5038489;28;20037;-74
2022/12/26 12:12:50;;;;;;;6.75;3.17;;;25.00;82.40;;;;;;5020827;28;20037;-74
2022/12/26 12:15:55;;;;;;;5.07;2.20;;;25.30;82.10;;;;;;5024670;28;20420;-75
2022/12/26 12:18:29;;;;;;;6.38;1.65;;;25.50;81.90;;;;;;4997666;28;22555;-75
2022/12/26 12:21:13;;;;;;;6.82;2.72;;;25.60;81.70;;;;;;5039346;28;20033;-74
2022/12/26 12:24:09;;;;;;;5.68;2.65;;;24.90;81.50;;;;;;5043506;28;20029;-74
2022/12/26 12:26:54;;;;;;;6.80;1.83;;;24.10;82.30;;;;;;5037392;28;20421;-75
2022/12/26 12:29:34;;;;;;;6.47;2.58;;;24.30;82.30;;;;;;5040630;28;20094;-74
2022/12/26 12:32:03;;;;;;;5.40;2.50;;;24.20;82.40;;;;;;5047788;28;20086;-73
2022/12/26 12:34:50;;;;;;;4.70;2.05;;;24.70;82.40;;;;;;5017484;28;20036;-75
2022/12/26 12:37:43;;;;;;;6.22;2.25;;;24.70;82.00;;;;;;5022590;28;20033;-73
2022/12/26 12:40:36;;;;;;;4.70;1.02;;;24.90;81.80;;;;;;5019955;28;20527;-74
2022/12/26 12:43:06;;;;;;;5.93;1.90;;;24.50;81.90;;;;;;5022044;28;20152;-74
2022/12/26 12:45:43;;;;;;;4.30;1.92;;;23.90;82.20;;;;;;5023342;28;20490;-74
2022/12/26 12:48:27;;;;;;;4.32;2.28;;;24.10;82.30;;;;;;5025474;28;20121;-75
2022/12/26 12:51:02;;;;;;;3.33;1.25;;;24.40;82.00;;;;;;5014798;28;20381;-74
2022/12/26 12:53:39;;;;;;;5.78;2.10;;;24.00;82.40;;;;;;5043434;28;20082;-75
2022/12/26 12:56:06;;;;;;;;;;;24.70;82.40;;;;;;5037735;28;20989;-75
2022/12/26 12:58:48;;;;;;;5.45;1.98;;;24.50;81.80;;;;;;5034701;28;20004;-75
2022/12/26 13:01:23;;;;;;;6.05;2.45;;;24.20;82.40;;;;;;5032099;28;20052;-74
2022/12/26 13:04:10;;;;;;;6.50;1.70;;;24.20;82.60;;;;;;5023018;28;20087;-74
2022/12/26 13:06:44;;;;;;;5.68;2.28;;;24.60;81.60;;;;;;5016886;28;20061;-74
2022/12/26 13:09:19;;;;;;;4.63;1.45;;;24.00;82.30;;;;;;5017310;28;21279;-74
2022/12/26 13:12:00;;;;;;;6.95;1.90;;;24.10;82.50;;;;;;5034830;28;20048;-73
2022/12/26 13:14:37;;;;;;;9.52;1.67;;;24.10;82.70;;;;;;5035039;28;20080;-73
2022/12/26 13:17:10;;;;;;;5.78;1.75;;;24.20;82.80;;;;;;5049326;28;20589;-74
2022/12/26 13:19:57;;;;;;;5.88;2.53;;;24.30;82.40;;;;;;5022952;28;20112;-73
2022/12/26 13:24:22;;;;;;;5.05;1.85;;;24.50;82.20;;;;;;5037369;28;20500;-74
2022/12/26 13:25:19;;;;;;;5.70;2.28;;;24.30;82.30;;;;;;5040188;28;20045;-73
2022/12/26 13:27:49;;;;;;;9.15;2.72;;;24.30;82.60;;;;;;5041480;28;20037;-73
2022/12/26 13:30:17;;;;;;;5.10;2.42;;;23.90;82.90;;;;;;5038250;28;20033;-73
2022/12/26 13:32:43;;;;;;;6.03;2.17;;;24.60;83.00;;;;;;5034229;28;20036;-74
2022/12/26 13:35:51;;;;;;;7.13;2.20;;;24.40;82.20;;;;;;5037255;28;20033;-75
2022/12/26 13:38:17;;;;;;;5.05;1.42;;;24.30;82.70;;;;;;5040629;28;20397;-74
2022/12/26 13:40:47;;;;;;;;;;;24.10;82.20;;;;;;5051809;28;20508;-73
2022/12/26 13:46:51;;;;;;;8.00;2.38;;;24.50;82.70;;;;;;5037178;28;20042;-74
2022/12/26 13:49:35;;;;;;;4.82;1.40;;;24.50;82.20;;;;;;4982447;28;20854;-74
2022/12/26 13:52:09;;;;;;;4.93;2.10;;;24.30;82.30;;;;;;4986084;28;20053;-73
2022/12/26 13:54:56;;;;;;;6.18;1.48;;;24.20;82.60;;;;;;4997416;28;20509;-74
2022/12/26 13:58:05;;;;;;;6.05;2.25;;;24.30;82.60;;;;;;4985572;28;20039;-74
2022/12/26 14:00:44;;;;;;;5.72;1.80;;;24.50;82.70;;;;;;5008703;28;20040;-74
2022/12/26 14:03:31;;;;;;;6.55;2.50;;;24.20;82.50;;;;;;5033753;28;20521;-73
2022/12/26 14:06:15;;;;;;;5.47;1.73;;;24.50;82.50;;;;;;5035877;28;20624;-74
2022/12/26 14:09:08;;;;;;;5.55;2.50;;;24.50;82.70;;;;;;5033229;28;20033;-73
2022/12/26 14:11:49;;;;;;;7.85;2.17;;;24.50;82.30;;;;;;5024745;28;20065;-74
2022/12/26 14:14:47;;;;;;;5.03;2.35;;;24.70;82.00;;;;;;5038788;28;20556;-73
2022/12/26 14:17:34;;;;;;;6.65;2.90;;;24.90;82.10;;;;;;5033387;28;20042;-73
2022/12/26 14:20:28;;;;;;;6.22;1.70;;;25.30;81.90;;;;;;5048506;28;20036;-74
2022/12/26 14:23:24;;;;;;;5.90;2.05;;;25.50;81.60;;;;;;5036216;28;20041;-74
2022/12/26 14:26:23;;;;;;;5.60;2.38;;;25.80;81.30;;;;;;5011949;28;20120;-73
2022/12/26 14:28:51;;;;;;;6.32;1.67;;;25.40;80.70;;;;;;5031139;28;20040;-73
2022/12/26 14:31:21;;;;;;;5.18;2.30;;;25.30;81.10;;;;;;5034379;28;20111;-73
2022/12/26 14:34:33;;;;;;;6.18;2.63;;;25.60;80.90;;;;;;5029681;28;20103;-74
2022/12/26 14:37:41;;;;;;;4.88;2.05;;;25.50;81.00;;;;;;5036571;28;20040;-73
2022/12/26 14:40:06;;;;;;;4.47;2.92;;;25.70;81.00;;;;;;5036590;28;20037;-75
2022/12/26 14:43:10;;;;;;;4.80;2.00;;;25.70;80.70;;;;;;5032925;28;20031;-73
2022/12/26 14:45:36;;;;;;;6.18;1.98;;;25.40;80.90;;;;;;5047662;28;20037;-73
2022/12/26 14:48:17;;;;;;;6.18;2.45;;;25.10;80.60;;;;;;5053517;28;20040;-73
2022/12/26 14:50:47;;;;;;;5.85;1.85;;;25.50;80.70;;;;;;5052267;28;20025;-74
2022/12/26 14:53:21;;;;;;;7.97;2.30;;;26.00;80.70;;;;;;5034525;28;20033;-74
2022/12/26 14:55:53;;;;;;;6.43;1.60;;;26.30;80.50;;;;;;5037334;28;20499;-74
2022/12/26 14:58:33;;;;;;;6.45;2.17;;;25.80;79.90;;;;;;5022608;28;20091;-74
2022/12/26 15:01:08;;;;;;;5.97;1.55;;;25.00;80.80;;;;;;5032686;28;20034;-74
2022/12/26 15:04:08;;;;;;;4.13;1.92;;;24.70;81.20;;;;;;5047371;28;20037;-73
2022/12/26 15:06:56;;;;;;;6.22;2.33;;;24.70;81.70;;;;;;5038808;28;20033;-73
2022/12/26 15:09:40;;;;;;;4.82;2.25;;;24.60;81.80;;;;;;5037041;28;20087;-73
2022/12/26 15:12:30;;;;;;;7.20;2.58;;;24.60;82.10;;;;;;5038167;28;20037;-73
2022/12/26 15:14:56;;;;;;;;;;;24.50;81.90;;;;;;5042765;28;20072;-73
2022/12/26 15:17:49;;;;;;;5.05;1.42;;;24.50;81.70;;;;;;5039339;28;20368;-73
2022/12/26 15:20:40;;;;;;;7.32;2.55;;;24.50;81.50;;;;;;5051376;28;20041;-74
2022/12/26 15:23:46;;;;;;;6.25;1.88;;;24.40;81.60;;;;;;5035947;28;20536;-74
2022/12/26 15:26:49;;;;;;;4.90;1.40;;;24.70;81.30;;;;;;5003859;28;20095;-74
2022/12/26 15:29:27;;;;;;;5.63;1.73;;;24.80;80.90;;;;;;5055593;28;20742;-74
2022/12/26 15:32:02;;;;;;;5.63;1.40;;;24.50;81.20;;;;;;5039605;28;20098;-73